Time;durP1;ratioP1;P1;durP2;ratioP2;P2;SDS_P1;SDS_P2;PMS_P1;PMS_P2;Temp;Humidity;BMP_temperature;BMP_pressure;BME280_temperature;BME280_humidity;BME280_pressure;Samples;Min_cycle;Max_cycle;Signal;HPM_P1;HPM_P2
2021/12/12 00:01:07;;;;;;;27.50;12.43;;;;;;;;;;5003050;28;20219;-63
2021/12/12 00:03:35;;;;;;;22.92;11.13;;;;;;;;;;5003763;28;20208;-63
2021/12/12 00:06:08;;;;;;;27.40;12.13;;;;;;;;;;5003418;28;20303;-64
2021/12/12 00:08:33;;;;;;;25.40;11.07;;;;;;;;;;4999445;28;20200;-63
2021/12/12 00:11:00;;;;;;;28.37;12.13;;;;;;;;;;4993997;28;20207;-63
2021/12/12 00:13:27;;;;;;;25.15;10.93;;;;;;;;;;4994581;28;20730;-63
2021/12/12 00:15:53;;;;;;;24.70;10.63;;;;;;;;;;4999472;28;20641;-63
2021/12/12 00:18:18;;;;;;;17.90;9.90;;;;;;;;;;5002871;28;20290;-64
2021/12/12 00:20:43;;;;;;;21.52;10.75;;;;;;;;;;5004752;28;20572;-63
2021/12/12 00:23:09;;;;;;;24.77;10.50;;;;;;;;;;5003611;28;20204;-64
2021/12/12 00:25:36;;;;;;;19.87;9.70;;;;;;;;;;5002636;28;20252;-63
2021/12/12 00:28:02;;;;;;;24.17;9.87;;;;;;;;;;5003970;28;20213;-63
2021/12/12 00:30:27;;;;;;;23.50;10.63;;;;;;;;;;5002970;28;20243;-64
2021/12/12 00:32:53;;;;;;;21.00;9.53;;;;;;;;;;4994837;28;20212;-63
2021/12/12 00:35:18;;;;;;;20.10;8.77;;;;;;;;;;4995159;28;20558;-62
2021/12/12 00:37:43;;;;;;;19.83;8.57;;;;;;;;;;4997207;28;20209;-63
2021/12/12 00:40:15;;;;;;;21.15;9.13;;;;;;;;;;5003180;28;20648;-63
2021/12/12 00:42:40;;;;;;;22.87;8.63;;;;;;;;;;5002022;28;20220;-63
2021/12/12 00:45:08;;;;;;;26.50;8.77;;;;;;;;;;5001782;28;20576;-63
2021/12/12 00:47:33;;;;;;;21.97;8.63;;;;;;;;;;5018818;28;20208;-63
2021/12/12 00:49:59;;;;;;;16.27;7.55;;;;;;;;;;5003984;28;20290;-63
2021/12/12 00:52:24;;;;;;;20.70;8.07;;;;;;;;;;5003878;28;20727;-63
2021/12/12 00:54:49;;;;;;;18.50;7.97;;;;;;;;;;4994932;28;20212;-63
2021/12/12 00:57:16;;;;;;;23.63;8.60;;;;;;;;;;4994468;28;20459;-63
2021/12/12 00:59:43;;;;;;;17.80;8.03;;;;;;;;;;4999063;28;20566;-63
2021/12/12 01:02:09;;;;;;;23.77;8.50;;;;;;;;;;5004908;28;20263;-63
2021/12/12 01:04:37;;;;;;;18.67;9.33;;;;;;;;;;5007682;28;20224;-63
2021/12/12 01:07:04;;;;;;;18.10;7.70;;;;;;;;;;5005775;28;20232;-63
2021/12/12 01:09:31;;;;;;;17.97;6.77;;;;;;;;;;5006499;28;20208;-63
2021/12/12 01:11:57;;;;;;;21.50;7.40;;;;;;;;;;5006469;28;20300;-63
2021/12/12 01:14:23;;;;;;;19.23;7.47;;;;;;;;;;5006285;28;20292;-63
2021/12/12 01:16:50;;;;;;;19.00;7.60;;;;;;;;;;5000530;28;20296;-63
2021/12/12 01:19:17;;;;;;;19.00;8.33;;;;;;;;;;4996825;28;20205;-63
2021/12/12 01:21:44;;;;;;;20.33;7.20;;;;;;;;;;4997196;28;20212;-63
2021/12/12 01:24:11;;;;;;;17.23;7.63;;;;;;;;;;5003380;28;20692;-63
2021/12/12 01:26:37;;;;;;;18.07;7.10;;;;;;;;;;5007860;28;20267;-63
2021/12/12 01:29:02;;;;;;;16.40;7.23;;;;;;;;;;5006300;28;20232;-63
2021/12/12 01:31:30;;;;;;;16.73;6.97;;;;;;;;;;5007485;28;20270;-63
2021/12/12 01:33:59;;;;;;;19.10;7.13;;;;;;;;;;5006123;28;20267;-63
2021/12/12 01:36:41;;;;;;;15.77;6.83;;;;;;;;;;5005086;28;20219;-63
2021/12/12 01:39:06;;;;;;;17.43;6.47;;;;;;;;;;5001862;28;20217;-63
2021/12/12 01:41:49;;;;;;;20.93;7.60;;;;;;;;;;4997209;28;20704;-63
2021/12/12 01:44:17;;;;;;;19.13;6.87;;;;;;;;;;4998136;28;20232;-63
2021/12/12 01:46:43;;;;;;;18.70;7.10;;;;;;;;;;5003973;28;20291;-64
2021/12/12 01:49:16;;;;;;;18.47;7.13;;;;;;;;;;5006663;28;20307;-64
2021/12/12 01:51:42;;;;;;;25.20;7.20;;;;;;;;;;5005267;28;20216;-64
2021/12/12 01:54:07;;;;;;;15.37;6.60;;;;;;;;;;5005537;28;20303;-64
2021/12/12 01:56:34;;;;;;;16.47;6.70;;;;;;;;;;5006570;28;20689;-64
2021/12/12 01:59:01;;;;;;;16.87;6.40;;;;;;;;;;5007215;28;20351;-64
2021/12/12 02:01:29;;;;;;;17.30;6.83;;;;;;;;;;5002507;28;20243;-64
2021/12/12 02:03:55;;;;;;;23.67;6.57;;;;;;;;;;4996925;28;20517;-65
2021/12/12 02:06:21;;;;;;;20.67;6.57;;;;;;;;;;4996433;28;20413;-65
2021/12/12 02:08:47;;;;;;;15.67;6.10;;;;;;;;;;5003409;28;20247;-65
2021/12/12 02:11:15;;;;;;;19.27;6.70;;;;;;;;;;5004294;28;20243;-65
2021/12/12 02:13:42;;;;;;;16.40;6.20;;;;;;;;;;5006857;28;20271;-65
2021/12/12 02:16:07;;;;;;;17.13;5.97;;;;;;;;;;5005163;28;20220;-65
2021/12/12 02:18:34;;;;;;;20.63;6.40;;;;;;;;;;5006331;28;20274;-65
2021/12/12 02:21:20;;;;;;;14.53;6.27;;;;;;;;;;5005199;28;20220;-65
2021/12/12 02:37:08;;;;;;;17.70;6.10;;;;;;;;;;5004930;28;20770;-64
2021/12/12 02:39:33;;;;;;;19.10;6.73;;;;;;;;;;5006310;28;20240;-64
2021/12/12 02:42:00;;;;;;;16.07;6.50;;;;;;;;;;5006476;28;20299;-64
2021/12/12 02:44:29;;;;;;;18.67;6.53;;;;;;;;;;5004522;28;20286;-64
2021/12/12 02:46:57;;;;;;;16.20;6.40;;;;;;;;;;4998367;28;20248;-64
2021/12/12 02:49:37;;;;;;;16.20;6.20;;;;;;;;;;4995815;28;20232;-65
2021/12/12 02:52:04;;;;;;;23.00;7.33;;;;;;;;;;4997036;28;20204;-64
2021/12/12 02:54:29;;;;;;;23.97;7.23;;;;;;;;;;5003741;28;20215;-64
2021/12/12 02:56:54;;;;;;;18.20;6.33;;;;;;;;;;5005132;28;20220;-64
2021/12/12 02:59:21;;;;;;;20.20;6.47;;;;;;;;;;5005290;28;20571;-65
2021/12/12 03:01:48;;;;;;;19.60;7.27;;;;;;;;;;5004332;28;20217;-64
2021/12/12 03:04:13;;;;;;;16.13;6.43;;;;;;;;;;5020541;28;20231;-64
2021/12/12 03:06:39;;;;;;;16.60;6.10;;;;;;;;;;5005372;28;20216;-64
2021/12/12 03:09:07;;;;;;;15.27;6.30;;;;;;;;;;4998486;28;20251;-64
2021/12/12 03:11:32;;;;;;;21.83;6.80;;;;;;;;;;4995993;28;20220;-64
2021/12/12 03:13:58;;;;;;;15.73;6.30;;;;;;;;;;4997038;28;20216;-64
2021/12/12 03:16:23;;;;;;;24.13;6.95;;;;;;;;;;5002874;28;20303;-64
2021/12/12 03:18:48;;;;;;;20.07;6.87;;;;;;;;;;5005643;28;20224;-64
2021/12/12 03:21:15;;;;;;;13.63;6.20;;;;;;;;;;5003987;28;20216;-65
2021/12/12 03:23:42;;;;;;;17.60;6.17;;;;;;;;;;5004098;28;20225;-64
2021/12/12 03:26:08;;;;;;;18.80;6.27;;;;;;;;;;5005056;28;20647;-64
2021/12/12 03:28:35;;;;;;;16.43;5.97;;;;;;;;;;5005258;28;20672;-64
2021/12/12 03:31:01;;;;;;;18.50;6.37;;;;;;;;;;4983831;28;20212;-64
2021/12/12 03:33:27;;;;;;;19.53;6.40;;;;;;;;;;4995909;28;20212;-65
2021/12/12 03:35:52;;;;;;;15.88;6.57;;;;;;;;;;4994932;28;20660;-65
2021/12/12 03:38:18;;;;;;;17.07;6.90;;;;;;;;;;5000138;28;20274;-65
2021/12/12 03:40:45;;;;;;;18.17;7.13;;;;;;;;;;5005813;28;20561;-65
2021/12/12 03:43:10;;;;;;;17.63;6.47;;;;;;;;;;5002792;28;20402;-65
2021/12/12 03:45:35;;;;;;;19.37;7.00;;;;;;;;;;5004290;28;20321;-65
2021/12/12 03:48:03;;;;;;;26.17;7.30;;;;;;;;;;5003285;28;20295;-65
2021/12/12 03:50:31;;;;;;;20.77;7.43;;;;;;;;;;5004612;28;20232;-64
2021/12/12 03:52:56;;;;;;;16.77;7.40;;;;;;;;;;5003055;28;20528;-64
2021/12/12 03:55:22;;;;;;;16.17;6.37;;;;;;;;;;4995335;28;20208;-65
2021/12/12 03:57:48;;;;;;;15.30;6.70;;;;;;;;;;4995275;28;20220;-65
2021/12/12 04:00:15;;;;;;;14.73;6.80;;;;;;;;;;4998265;28;20219;-65
2021/12/12 04:02:41;;;;;;;16.70;6.93;;;;;;;;;;5005141;28;20695;-65
2021/12/12 04:05:06;;;;;;;16.90;7.00;;;;;;;;;;5004367;28;20241;-65
2021/12/12 04:07:32;;;;;;;20.77;7.10;;;;;;;;;;5003550;28;20235;-65
2021/12/12 04:09:58;;;;;;;18.40;7.43;;;;;;;;;;5004596;28;20223;-65
2021/12/12 04:12:23;;;;;;;19.00;7.17;;;;;;;;;;5004470;28;20220;-65
2021/12/12 04:14:49;;;;;;;14.03;6.53;;;;;;;;;;5003585;28;20235;-65
2021/12/12 04:17:15;;;;;;;15.37;7.23;;;;;;;;;;4996568;28;20219;-65
2021/12/12 04:19:41;;;;;;;15.63;7.07;;;;;;;;;;4995416;28;20224;-65
2021/12/12 04:22:06;;;;;;;16.73;7.20;;;;;;;;;;4994693;28;20676;-65
2021/12/12 04:24:33;;;;;;;17.93;8.13;;;;;;;;;;5002241;28;20229;-65
2021/12/12 04:26:58;;;;;;;12.93;7.53;;;;;;;;;;5004960;28;20224;-65
2021/12/12 04:29:27;;;;;;;13.83;7.37;;;;;;;;;;5002971;28;20220;-65
2021/12/12 04:31:54;;;;;;;13.27;6.30;;;;;;;;;;5003263;28;20220;-65
2021/12/12 04:34:22;;;;;;;14.20;7.20;;;;;;;;;;5006758;28;20236;-65
2021/12/12 04:36:47;;;;;;;14.03;6.27;;;;;;;;;;5008858;28;20224;-65
2021/12/12 04:39:14;;;;;;;12.53;6.77;;;;;;;;;;5002023;28;20227;-65
2021/12/12 04:41:42;;;;;;;12.00;6.30;;;;;;;;;;5000152;28;20243;-65
2021/12/12 04:44:07;;;;;;;10.17;5.90;;;;;;;;;;4997642;28;20644;-65
2021/12/12 04:49:54;;;;;;;10.27;6.13;;;;;;;;;;5006163;28;20240;-64
2021/12/12 04:52:05;;;;;;;12.40;6.33;;;;;;;;;;5008153;28;20368;-64
2021/12/12 04:54:32;;;;;;;12.90;6.27;;;;;;;;;;5007624;28;20209;-64
2021/12/12 04:57:08;;;;;;;10.10;6.83;;;;;;;;;;5007331;28;20216;-64
2021/12/12 04:59:36;;;;;;;9.93;6.13;;;;;;;;;;5007712;28;20212;-64
2021/12/12 05:02:03;;;;;;;10.57;6.30;;;;;;;;;;5000895;28;20254;-65
2021/12/12 05:04:46;;;;;;;10.33;6.20;;;;;;;;;;4999393;28;20224;-64
2021/12/12 05:07:13;;;;;;;9.57;6.07;;;;;;;;;;4998848;28;20212;-65
2021/12/12 05:09:46;;;;;;;10.10;6.00;;;;;;;;;;5006354;28;20688;-64
2021/12/12 05:12:19;;;;;;;8.97;5.90;;;;;;;;;;5006241;28;20231;-65
2021/12/12 05:14:49;;;;;;;10.73;5.70;;;;;;;;;;5007968;28;20217;-65
2021/12/12 05:17:22;;;;;;;10.30;5.90;;;;;;;;;;5007681;28;20583;-65
2021/12/12 05:19:50;;;;;;;8.67;5.40;;;;;;;;;;5006127;28;21223;-65
2021/12/12 05:22:16;;;;;;;11.77;5.33;;;;;;;;;;5005785;28;20250;-64
2021/12/12 05:24:41;;;;;;;10.17;6.03;;;;;;;;;;4998591;28;20229;-64
2021/12/12 05:27:09;;;;;;;10.30;6.23;;;;;;;;;;4999014;28;20220;-65
2021/12/12 05:29:39;;;;;;;9.83;5.40;;;;;;;;;;4997962;28;20222;-64
2021/12/12 05:32:05;;;;;;;11.30;6.37;;;;;;;;;;5005785;28;20220;-65
2021/12/12 05:34:32;;;;;;;10.03;5.80;;;;;;;;;;5006671;28;20269;-64
2021/12/12 05:36:57;;;;;;;13.20;6.63;;;;;;;;;;5006546;28;20798;-64
2021/12/12 05:39:23;;;;;;;11.03;6.27;;;;;;;;;;5005948;28;20220;-64
2021/12/12 05:41:48;;;;;;;9.47;6.00;;;;;;;;;;5005420;28;20239;-65
2021/12/12 05:44:14;;;;;;;11.93;7.30;;;;;;;;;;5006109;28;20247;-64
2021/12/12 05:46:39;;;;;;;12.70;6.10;;;;;;;;;;5000203;28;20270;-64
2021/12/12 05:49:04;;;;;;;9.90;6.13;;;;;;;;;;4996811;28;20244;-64
2021/12/12 05:51:30;;;;;;;11.87;6.30;;;;;;;;;;4997440;28;20572;-64
2021/12/12 05:53:55;;;;;;;10.83;6.03;;;;;;;;;;5002635;28;20216;-64
2021/12/12 05:56:22;;;;;;;13.87;6.87;;;;;;;;;;4988338;28;20228;-64
2021/12/12 05:58:48;;;;;;;14.33;7.50;;;;;;;;;;5006173;28;20274;-64
2021/12/12 06:01:13;;;;;;;13.17;7.77;;;;;;;;;;5005447;28;20216;-64
2021/12/12 06:03:39;;;;;;;14.47;9.07;;;;;;;;;;5005320;28;20612;-64
2021/12/12 06:06:05;;;;;;;15.80;9.67;;;;;;;;;;5005412;28;20218;-65
2021/12/12 06:08:30;;;;;;;14.13;9.30;;;;;;;;;;5001849;28;20441;-64
2021/12/12 06:10:56;;;;;;;14.43;9.33;;;;;;;;;;4996865;28;20251;-64
2021/12/12 06:13:21;;;;;;;13.70;8.10;;;;;;;;;;4998427;28;20623;-64
2021/12/12 06:15:50;;;;;;;13.30;7.47;;;;;;;;;;5001033;28;20590;-64
2021/12/12 06:18:15;;;;;;;12.27;7.27;;;;;;;;;;5006137;28;20220;-64
2021/12/12 06:20:41;;;;;;;16.03;9.00;;;;;;;;;;5005255;28;20224;-65
2021/12/12 06:23:06;;;;;;;11.40;8.23;;;;;;;;;;5005352;28;20201;-64
2021/12/12 06:25:31;;;;;;;13.80;9.10;;;;;;;;;;4995119;28;20232;-65
2021/12/12 06:27:56;;;;;;;14.07;8.83;;;;;;;;;;5004944;28;20244;-64
2021/12/12 06:30:22;;;;;;;14.87;10.23;;;;;;;;;;5001563;28;20212;-64
2021/12/12 06:32:48;;;;;;;13.95;9.48;;;;;;;;;;4996319;28;20236;-64
2021/12/12 06:35:13;;;;;;;13.40;9.43;;;;;;;;;;5001600;28;20218;-64
2021/12/12 06:37:39;;;;;;;12.60;8.97;;;;;;;;;;5000181;28;20912;-64
2021/12/12 06:40:05;;;;;;;12.53;7.93;;;;;;;;;;4997358;28;20220;-64
2021/12/12 06:42:31;;;;;;;12.32;6.88;;;;;;;;;;4995888;28;20802;-64
2021/12/12 06:44:56;;;;;;;11.20;7.03;;;;;;;;;;5002013;28;20226;-64
2021/12/12 06:47:21;;;;;;;12.70;7.03;;;;;;;;;;5004283;28;20220;-64
2021/12/12 06:49:47;;;;;;;10.77;7.28;;;;;;;;;;4988668;28;20216;-64
2021/12/12 06:52:13;;;;;;;11.03;7.33;;;;;;;;;;5008585;28;20614;-64
2021/12/12 06:54:38;;;;;;;12.07;7.87;;;;;;;;;;5011532;28;20299;-63
2021/12/12 06:57:04;;;;;;;12.93;7.53;;;;;;;;;;5010654;28;20696;-62
2021/12/12 06:59:30;;;;;;;13.57;9.70;;;;;;;;;;5004585;28;20429;-62
2021/12/12 07:01:55;;;;;;;16.45;8.98;;;;;;;;;;5002082;28;20247;-60
2021/12/12 07:04:21;;;;;;;13.77;8.95;;;;;;;;;;5007952;28;20780;-59
2021/12/12 07:06:47;;;;;;;13.23;8.83;;;;;;;;;;5008043;28;20209;-59
2021/12/12 07:09:13;;;;;;;12.60;8.63;;;;;;;;;;5008448;28;20303;-59
2021/12/12 07:11:38;;;;;;;14.35;9.38;;;;;;;;;;5012809;28;20299;-59
2021/12/12 07:14:04;;;;;;;14.20;9.40;;;;;;;;;;5012424;28;20224;-59
2021/12/12 07:16:31;;;;;;;13.37;9.97;;;;;;;;;;5013316;28;20212;-59
2021/12/12 07:18:56;;;;;;;14.23;9.53;;;;;;;;;;5011841;28;20565;-59
2021/12/12 07:21:21;;;;;;;13.33;9.40;;;;;;;;;;5011064;28;20279;-59
2021/12/12 07:23:47;;;;;;;13.47;9.90;;;;;;;;;;5012857;28;20226;-59
2021/12/12 07:26:13;;;;;;;12.90;9.73;;;;;;;;;;5012683;28;20232;-59
2021/12/12 07:28:38;;;;;;;13.20;9.43;;;;;;;;;;5011070;28;20240;-59
2021/12/12 07:31:05;;;;;;;14.93;9.73;;;;;;;;;;5012742;28;20216;-59
2021/12/12 07:33:31;;;;;;;13.88;9.60;;;;;;;;;;5011687;28;20299;-59
2021/12/12 07:35:58;;;;;;;14.57;10.27;;;;;;;;;;5012555;28;20647;-59
2021/12/12 07:38:24;;;;;;;16.37;10.97;;;;;;;;;;5011227;28;20224;-59
2021/12/12 07:40:49;;;;;;;18.23;10.63;;;;;;;;;;5012728;28;20327;-59
2021/12/12 07:43:14;;;;;;;17.97;11.30;;;;;;;;;;5010242;28;20315;-59
2021/12/12 07:45:39;;;;;;;16.63;11.10;;;;;;;;;;5011485;28;20217;-60
2021/12/12 07:48:06;;;;;;;16.33;11.00;;;;;;;;;;5011832;28;20216;-59
2021/12/12 07:50:31;;;;;;;18.98;11.85;;;;;;;;;;5011756;28;20216;-59
2021/12/12 07:52:57;;;;;;;17.95;11.77;;;;;;;;;;5012133;28;20220;-59
2021/12/12 07:55:22;;;;;;;17.73;11.47;;;;;;;;;;5011407;28;20239;-59
2021/12/12 07:57:47;;;;;;;21.57;11.53;;;;;;;;;;5011295;28;20696;-59
2021/12/12 08:00:14;;;;;;;16.90;11.03;;;;;;;;;;5011616;28;20216;-59
2021/12/12 08:02:40;;;;;;;18.83;13.00;;;;;;;;;;5010713;28;20559;-59
2021/12/12 08:05:05;;;;;;;19.27;11.00;;;;;;;;;;5010782;28;20239;-59
2021/12/12 08:07:33;;;;;;;17.03;11.03;;;;;;;;;;5011879;28;20212;-59
2021/12/12 08:09:58;;;;;;;19.20;11.77;;;;;;;;;;5011854;28;20224;-60
2021/12/12 08:12:24;;;;;;;19.77;10.87;;;;;;;;;;5012230;28;20270;-60
2021/12/12 08:14:49;;;;;;;17.98;10.57;;;;;;;;;;5010848;28;20220;-60
2021/12/12 08:17:16;;;;;;;14.73;9.97;;;;;;;;;;5010228;28;20216;-60
2021/12/12 08:19:41;;;;;;;15.37;9.87;;;;;;;;;;5011302;28;20216;-60
2021/12/12 08:22:08;;;;;;;16.90;10.60;;;;;;;;;;5011705;28;20243;-59
2021/12/12 08:24:33;;;;;;;15.90;10.80;;;;;;;;;;5005129;28;20311;-59
2021/12/12 08:26:59;;;;;;;20.23;11.80;;;;;;;;;;4992488;28;20312;-59
2021/12/12 08:29:24;;;;;;;16.10;10.83;;;;;;;;;;4991873;28;20224;-59
2021/12/12 08:31:50;;;;;;;21.20;11.48;;;;;;;;;;5007364;28;20224;-59
2021/12/12 08:34:15;;;;;;;20.67;12.27;;;;;;;;;;4992188;28;20271;-59
2021/12/12 08:36:43;;;;;;;20.93;11.47;;;;;;;;;;4992652;28;20228;-59
2021/12/12 08:39:09;;;;;;;26.43;12.70;;;;;;;;;;4988834;28;20220;-60
2021/12/12 08:41:35;;;;;;;22.60;13.37;;;;;;;;;;5009948;28;20278;-60
2021/12/12 08:44:00;;;;;;;23.77;12.57;;;;;;;;;;5011189;28;20723;-61
2021/12/12 08:46:26;;;;;;;24.10;13.40;;;;;;;;;;5011578;28;20213;-59
2021/12/12 08:48:51;;;;;;;23.87;12.13;;;;;;;;;;5011351;28;20212;-59
2021/12/12 08:51:29;;;;;;;28.37;13.83;;;;;;;;;;5011624;28;20287;-59
2021/12/12 08:53:55;;;;;;;25.07;15.90;;;;;;;;;;5011649;28;20335;-59
2021/12/12 08:56:40;;;;;;;28.00;17.40;;;;;;;;;;5010095;28;20307;-59
2021/12/12 08:59:05;;;;;;;32.17;13.90;;;;;;;;;;5009820;28;20244;-61
2021/12/12 09:01:30;;;;;;;29.83;15.27;;;;;;;;;;5010826;28;20208;-59
2021/12/12 09:03:57;;;;;;;26.87;15.63;;;;;;;;;;5010201;28;20208;-59
2021/12/12 09:06:24;;;;;;;27.37;13.60;;;;;;;;;;4996101;28;20224;-59
2021/12/12 09:08:53;;;;;;;29.03;16.00;;;;;;;;;;4993941;28;20597;-60
2021/12/12 09:11:22;;;;;;;27.90;17.20;;;;;;;;;;4993271;28;20224;-60
2021/12/12 09:13:52;;;;;;;26.57;16.80;;;;;;;;;;4997878;28;20629;-60
2021/12/12 09:16:20;;;;;;;27.97;13.10;;;;;;;;;;5003596;28;20285;-60
2021/12/12 09:18:47;;;;;;;30.03;13.97;;;;;;;;;;5001442;28;20224;-61
2021/12/12 09:21:18;;;;;;;18.47;11.03;;;;;;;;;;5006271;28;20201;-61
2021/12/12 09:23:45;;;;;;;23.88;12.40;;;;;;;;;;5006031;28;20278;-60
2021/12/12 09:26:12;;;;;;;21.73;12.23;;;;;;;;;;5007021;28;20217;-61
2021/12/12 09:28:40;;;;;;;18.33;11.73;;;;;;;;;;5004829;28;20216;-60
2021/12/12 09:31:07;;;;;;;24.93;12.67;;;;;;;;;;4993732;28;20204;-61
2021/12/12 09:33:33;;;;;;;22.23;12.20;;;;;;;;;;4997757;28;20212;-61
2021/12/12 09:36:00;;;;;;;26.03;13.43;;;;;;;;;;5001291;28;20294;-60
2021/12/12 09:38:30;;;;;;;24.37;12.80;;;;;;;;;;5005578;28;20215;-60
2021/12/12 09:41:03;;;;;;;19.63;12.13;;;;;;;;;;5005570;28;20228;-61
2021/12/12 09:43:29;;;;;;;24.60;14.37;;;;;;;;;;5006761;28;20259;-60
2021/12/12 09:45:59;;;;;;;20.95;12.50;;;;;;;;;;5004681;28;20763;-59
2021/12/12 09:51:22;;;;;;;26.13;13.30;;;;;;;;;;5004581;28;20251;-60
2021/12/12 09:53:52;;;;;;;20.80;13.10;;;;;;;;;;4997808;28;20230;-60
2021/12/12 09:56:29;;;;;;;31.10;19.10;;;;;;;;;;4998181;28;20216;-60
2021/12/12 09:59:00;;;;;;;25.17;13.98;;;;;;;;;;5000158;28;20568;-60
2021/12/12 10:01:30;;;;;;;23.00;13.40;;;;;;;;;;5005304;28;20250;-60
2021/12/12 10:03:55;;;;;;;26.88;15.80;;;;;;;;;;5005238;28;20684;-60
2021/12/12 10:06:45;;;;;;;9.27;4.10;;;;;;;;;;5006062;28;20274;-59
2021/12/12 10:09:13;;;;;;;16.30;9.40;;;;;;;;;;5005840;28;20730;-61
2021/12/12 10:11:53;;;;;;;23.63;17.52;;;;;;;;;;5006643;28;20558;-61
2021/12/12 10:14:28;;;;;;;23.13;14.13;;;;;;;;;;5001603;28;20224;-61
2021/12/12 10:16:54;;;;;;;22.15;12.27;;;;;;;;;;4997109;28;20827;-60
2021/12/12 10:19:30;;;;;;;27.88;15.32;;;;;;;;;;4997857;28;20244;-61
2021/12/12 10:21:58;;;;;;;26.63;13.80;;;;;;;;;;5002380;28;20234;-61
2021/12/12 10:24:32;;;;;;;27.27;17.27;;;;;;;;;;5005802;28;20221;-61
2021/12/12 10:26:58;;;;;;;26.98;14.55;;;;;;;;;;5005069;28;20255;-61
2021/12/12 10:29:26;;;;;;;26.23;14.67;;;;;;;;;;5006093;28;20665;-60
2021/12/12 10:31:53;;;;;;;25.63;14.33;;;;;;;;;;5004057;28;20224;-60
2021/12/12 10:34:20;;;;;;;29.95;14.23;;;;;;;;;;5004304;28;20299;-60
2021/12/12 10:36:50;;;;;;;25.38;13.45;;;;;;;;;;5003058;28;20220;-60
2021/12/12 10:39:23;;;;;;;27.25;14.80;;;;;;;;;;4996534;28;20239;-60
2021/12/12 10:41:52;;;;;;;26.30;15.35;;;;;;;;;;4994396;28;20550;-60
2021/12/12 10:44:31;;;;;;;23.60;13.23;;;;;;;;;;4999501;28;20324;-60
2021/12/12 10:47:02;;;;;;;21.92;12.73;;;;;;;;;;5004829;28;20227;-60
2021/12/12 10:49:32;;;;;;;21.33;12.25;;;;;;;;;;5005693;28;20220;-61
2021/12/12 10:52:05;;;;;;;18.00;12.70;;;;;;;;;;5005671;28;20282;-62
2021/12/12 10:54:39;;;;;;;21.05;12.55;;;;;;;;;;5005803;28;20209;-61
2021/12/12 10:57:08;;;;;;;16.80;11.43;;;;;;;;;;5003774;28;20220;-60
2021/12/12 10:59:35;;;;;;;20.88;12.07;;;;;;;;;;5002456;28;20251;-60
2021/12/12 11:02:02;;;;;;;17.27;11.40;;;;;;;;;;4995033;28;20216;-60
2021/12/12 11:04:34;;;;;;;18.33;11.27;;;;;;;;;;4997026;28;20319;-74
2021/12/12 11:06:59;;;;;;;16.48;10.30;;;;;;;;;;4982285;28;20216;-73
2021/12/12 11:09:27;;;;;;;14.75;10.05;;;;;;;;;;5005498;28;20620;-70
2021/12/12 11:11:55;;;;;;;14.23;10.40;;;;;;;;;;5004226;28;20290;-68
2021/12/12 11:14:21;;;;;;;17.98;11.43;;;;;;;;;;5004644;28;21107;-69
2021/12/12 11:16:49;;;;;;;16.90;10.80;;;;;;;;;;5004284;28;20223;-69
2021/12/12 11:19:17;;;;;;;13.30;9.82;;;;;;;;;;5003256;28;20282;-70
2021/12/12 11:21:44;;;;;;;16.70;10.85;;;;;;;;;;5004310;28;20216;-70
2021/12/12 11:24:14;;;;;;;18.50;13.73;;;;;;;;;;4978975;28;20270;-71
2021/12/12 11:26:45;;;;;;;14.77;9.23;;;;;;;;;;4996467;28;20223;-72
2021/12/12 11:29:12;;;;;;;13.52;9.75;;;;;;;;;;4996590;28;20616;-72
2021/12/12 11:31:41;;;;;;;17.07;12.00;;;;;;;;;;5004161;28;20474;-73
2021/12/12 11:34:06;;;;;;;16.70;10.55;;;;;;;;;;5004267;28;20220;-72
2021/12/12 11:36:35;;;;;;;13.75;9.65;;;;;;;;;;5003923;28;20624;-72
2021/12/12 11:39:04;;;;;;;12.55;8.80;;;;;;;;;;5004933;28;20266;-70
2021/12/12 11:41:53;;;;;;;13.33;9.17;;;;;;;;;;5004220;28;20923;-69
2021/12/12 11:44:21;;;;;;;15.60;10.43;;;;;;;;;;5001780;28;20232;-71
2021/12/12 11:46:54;;;;;;;12.48;8.68;;;;;;;;;;4995436;28;20216;-70
2021/12/12 11:49:21;;;;;;;16.33;11.57;;;;;;;;;;4994042;28;20346;-71
2021/12/12 11:51:49;;;;;;;12.48;8.25;;;;;;;;;;4997080;28;20216;-71
2021/12/12 11:54:17;;;;;;;11.10;8.60;;;;;;;;;;5002949;28;20220;-71
2021/12/12 11:56:45;;;;;;;13.82;9.25;;;;;;;;;;5004955;28;20346;-73
2021/12/12 11:59:19;;;;;;;15.52;9.13;;;;;;;;;;5003095;28;20226;-74
2021/12/12 12:01:48;;;;;;;13.40;9.25;;;;;;;;;;5002960;28;20236;-75
2021/12/12 12:04:17;;;;;;;15.00;10.85;;;;;;;;;;5004282;28;20239;-75
2021/12/12 12:07:02;;;;;;;12.48;8.75;;;;;;;;;;5008870;28;20218;-76
2021/12/12 12:09:28;;;;;;;12.40;8.80;;;;;;;;;;5010617;28;20212;-76
2021/12/12 12:11:54;;;;;;;15.93;11.07;;;;;;;;;;5007345;28;20221;-79
2021/12/12 12:14:28;;;;;;;13.68;9.77;;;;;;;;;;5000308;28;20555;-81
2021/12/12 12:16:57;;;;;;;14.20;9.07;;;;;;;;;;4996060;28;20227;-78
2021/12/12 12:19:26;;;;;;;12.35;9.18;;;;;;;;;;4994528;28;20228;-79
2021/12/12 12:21:52;;;;;;;11.88;8.70;;;;;;;;;;5000002;28;20216;-78
2021/12/12 12:24:25;;;;;;;12.50;8.55;;;;;;;;;;5003853;28;20232;-61
2021/12/12 12:26:56;;;;;;;13.38;8.57;;;;;;;;;;5004225;28;20220;-64
2021/12/12 12:29:21;;;;;;;12.18;8.93;;;;;;;;;;5004161;28;20656;-60
2021/12/12 12:32:05;;;;;;;12.00;8.85;;;;;;;;;;5004652;28;20235;-61
2021/12/12 12:34:46;;;;;;;12.70;8.45;;;;;;;;;;5003471;28;20282;-61
2021/12/12 12:37:49;;;;;;;12.48;9.15;;;;;;;;;;4999106;28;20286;-61
2021/12/12 12:40:35;;;;;;;13.38;9.02;;;;;;;;;;4995509;28;20310;-61
2021/12/12 12:43:18;;;;;;;15.27;11.13;;;;;;;;;;4996178;28;20232;-61
2021/12/12 12:46:02;;;;;;;13.23;9.07;;;;;;;;;;5003785;28;20240;-61
2021/12/12 12:48:46;;;;;;;13.65;8.88;;;;;;;;;;5004188;28;20263;-61
2021/12/12 12:51:18;;;;;;;11.25;8.27;;;;;;;;;;5003165;28;20747;-61
2021/12/12 12:53:43;;;;;;;13.02;9.10;;;;;;;;;;5004136;28;20734;-61
2021/12/12 12:56:27;;;;;;;12.60;8.88;;;;;;;;;;5022804;28;20657;-61
2021/12/12 12:59:00;;;;;;;12.68;10.05;;;;;;;;;;5020530;28;20232;-61
2021/12/12 13:01:32;;;;;;;13.00;10.02;;;;;;;;;;4999975;28;21250;-60
2021/12/12 13:04:01;;;;;;;11.35;8.80;;;;;;;;;;5000597;28;20608;-61
2021/12/12 13:06:46;;;;;;;16.58;10.38;;;;;;;;;;5001328;28;20212;-61
2021/12/12 13:09:15;;;;;;;14.45;9.77;;;;;;;;;;5007205;28;20215;-61
2021/12/12 13:11:46;;;;;;;13.90;9.65;;;;;;;;;;5007322;28;20216;-61
2021/12/12 13:14:18;;;;;;;15.15;10.40;;;;;;;;;;5007245;28;20244;-61
2021/12/12 13:16:46;;;;;;;11.98;9.48;;;;;;;;;;5007524;28;20305;-61
2021/12/12 13:19:14;;;;;;;10.90;8.98;;;;;;;;;;5005171;28;20213;-61
2021/12/12 13:21:39;;;;;;;15.82;10.65;;;;;;;;;;5005614;28;20299;-61
2021/12/12 13:24:16;;;;;;;13.48;10.43;;;;;;;;;;4998786;28;20258;-61
2021/12/12 13:27:07;;;;;;;13.38;10.27;;;;;;;;;;4997094;28;20215;-61
2021/12/12 13:29:40;;;;;;;12.35;9.43;;;;;;;;;;5003290;28;20273;-60
2021/12/12 13:32:14;;;;;;;13.98;10.20;;;;;;;;;;5005993;28;20205;-61
2021/12/12 13:34:45;;;;;;;15.07;10.13;;;;;;;;;;5005678;28;20670;-60
2021/12/12 13:37:18;;;;;;;12.50;10.05;;;;;;;;;;5005403;28;20645;-61
2021/12/12 13:39:44;;;;;;;11.88;9.20;;;;;;;;;;5006994;28;20221;-61
2021/12/12 13:42:19;;;;;;;12.38;9.85;;;;;;;;;;5006845;28;20295;-61
2021/12/12 13:44:47;;;;;;;15.63;10.93;;;;;;;;;;5002080;28;20263;-61
2021/12/12 13:47:31;;;;;;;13.98;10.52;;;;;;;;;;4998279;28;20350;-61
2021/12/12 13:49:57;;;;;;;13.63;10.13;;;;;;;;;;4998819;28;20815;-61
2021/12/12 13:52:43;;;;;;;12.98;10.38;;;;;;;;;;5005140;28;20299;-61
2021/12/12 13:55:15;;;;;;;14.05;11.07;;;;;;;;;;5011756;28;20216;-61
2021/12/12 13:57:52;;;;;;;14.70;11.10;;;;;;;;;;5013383;28;20228;-61
2021/12/12 14:00:19;;;;;;;14.07;10.82;;;;;;;;;;5013119;28;20796;-61
2021/12/12 14:02:46;;;;;;;15.82;11.45;;;;;;;;;;5012681;28;20247;-60
2021/12/12 14:05:28;;;;;;;14.82;10.77;;;;;;;;;;5013209;28;20287;-61
2021/12/12 14:07:54;;;;;;;14.00;10.90;;;;;;;;;;5012575;28;20620;-60
2021/12/12 14:10:21;;;;;;;13.80;10.82;;;;;;;;;;5012863;28;20212;-61
2021/12/12 14:12:47;;;;;;;13.55;11.10;;;;;;;;;;5013079;28;20563;-61
2021/12/12 14:15:15;;;;;;;14.90;11.18;;;;;;;;;;5008557;28;20232;-61
2021/12/12 14:17:47;;;;;;;14.90;11.65;;;;;;;;;;4993621;28;20213;-60
2021/12/12 14:20:13;;;;;;;13.23;10.73;;;;;;;;;;4992830;28;20731;-61
2021/12/12 14:22:39;;;;;;;14.63;12.27;;;;;;;;;;5009381;28;20221;-61
2021/12/12 14:25:06;;;;;;;19.77;12.90;;;;;;;;;;5012573;28;20715;-61
2021/12/12 14:27:31;;;;;;;29.08;17.98;;;;;;;;;;5013880;28;20224;-61
2021/12/12 14:29:57;;;;;;;14.20;11.52;;;;;;;;;;5012327;28;20221;-61
2021/12/12 14:32:25;;;;;;;16.60;12.10;;;;;;;;;;5012537;28;20229;-61
2021/12/12 14:34:53;;;;;;;14.77;11.90;;;;;;;;;;5013787;28;20277;-61
2021/12/12 14:37:22;;;;;;;13.85;11.88;;;;;;;;;;5012910;28;20303;-61
2021/12/12 14:39:48;;;;;;;15.32;12.57;;;;;;;;;;5012619;28;20299;-61
2021/12/12 14:42:23;;;;;;;16.20;13.13;;;;;;;;;;5012267;28;20303;-61
2021/12/12 14:44:48;;;;;;;14.55;11.60;;;;;;;;;;5013422;28;20236;-61
2021/12/12 14:47:14;;;;;;;18.13;14.00;;;;;;;;;;5013243;28;20227;-61
2021/12/12 14:49:46;;;;;;;16.13;12.75;;;;;;;;;;5012635;28;20721;-61
2021/12/12 14:52:16;;;;;;;15.10;12.30;;;;;;;;;;5010807;28;20673;-61